Time;durP1;ratioP1;P1;durP2;ratioP2;P2;SDS_P1;SDS_P2;PMS_P1;PMS_P2;Temp;Humidity;BMP_temperature;BMP_pressure;BME280_temperature;BME280_humidity;BME280_pressure;Samples;Min_cycle;Max_cycle;Signal;HPM_P1;HPM_P2
2024/01/29 00:00:19;;;;;;;8.57;3.72;;;;;;;2.11;87.15;94185.72;4839490;29;20037;-77
2024/01/29 00:02:45;;;;;;;6.57;3.55;;;;;;;2.11;87.89;94190.91;4839890;29;20090;-79
2024/01/29 00:05:11;;;;;;;6.18;3.38;;;;;;;2.08;87.77;94189.50;4832574;29;20098;-79
2024/01/29 00:07:39;;;;;;;6.38;3.40;;;;;;;2.04;88.20;94177.94;4834581;29;20137;-78
2024/01/29 00:10:07;;;;;;;6.65;3.70;;;;;;;2.11;87.55;94183.94;4809596;29;20050;-79
2024/01/29 00:12:35;;;;;;;6.15;3.65;;;;;;;2.11;88.11;94194.28;4838744;29;20435;-80
2024/01/29 00:15:01;;;;;;;8.27;3.97;;;;;;;2.10;88.01;94195.28;4843857;29;20037;-79
2024/01/29 00:17:27;;;;;;;8.45;4.10;;;;;;;2.06;88.02;94192.25;4843570;29;20054;-79
2024/01/29 00:19:52;;;;;;;6.95;4.22;;;;;;;2.04;88.00;94191.66;4834894;29;20043;-80
2024/01/29 00:22:19;;;;;;;7.90;4.13;;;;;;;2.01;88.20;94191.25;4833538;29;20056;-79
2024/01/29 00:24:44;;;;;;;8.40;4.50;;;;;;;1.98;88.01;94189.84;4827800;29;20042;-79
2024/01/29 00:27:10;;;;;;;7.53;4.38;;;;;;;1.97;87.59;94183.09;4843343;29;20044;-79
2024/01/29 00:29:38;;;;;;;7.22;4.47;;;;;;;1.96;87.54;94185.84;4798590;29;20042;-80
2024/01/29 00:32:04;;;;;;;8.15;4.60;;;;;;;1.96;86.71;94183.25;4832978;29;20522;-80
2024/01/29 00:34:29;;;;;;;10.18;4.95;;;;;;;1.95;87.19;94185.06;4837094;29;20035;-80
2024/01/29 00:36:58;;;;;;;8.90;4.55;;;;;;;1.94;87.79;94175.72;4817849;29;20423;-79
2024/01/29 00:39:24;;;;;;;7.22;4.57;;;;;;;1.92;87.54;94179.50;4838498;29;20026;-80
2024/01/29 00:41:50;;;;;;;7.18;4.30;;;;;;;1.88;86.47;94179.84;4825121;29;20061;-80
2024/01/29 00:44:17;;;;;;;9.13;4.40;;;;;;;1.90;86.82;94186.63;4838902;29;20268;-79
2024/01/29 00:46:45;;;;;;;8.98;4.60;;;;;;;1.87;87.41;94178.28;4837699;29;20037;-79
2024/01/29 00:49:11;;;;;;;8.52;4.55;;;;;;;1.88;87.20;94181.66;4828797;29;20402;-79
2024/01/29 00:51:36;;;;;;;8.63;4.40;;;;;;;1.88;86.94;94182.44;4843339;29;20041;-78
2024/01/29 00:54:02;;;;;;;7.20;4.10;;;;;;;1.88;87.16;94176.47;4843924;29;20044;-80
2024/01/29 00:56:28;;;;;;;7.80;4.35;;;;;;;1.88;87.18;94176.47;4815271;29;20042;-79
2024/01/29 00:58:53;;;;;;;7.32;4.05;;;;;;;1.88;86.82;94177.28;4826458;29;20087;-79
2024/01/29 01:01:20;;;;;;;9.13;4.53;;;;;;;1.91;86.55;94177.88;4833581;29;20054;-79
2024/01/29 01:03:47;;;;;;;7.57;4.18;;;;;;;1.90;86.47;94182.25;4841553;29;20454;-79
2024/01/29 01:06:13;;;;;;;7.03;4.40;;;;;;;1.84;86.66;94170.88;4840382;29;20050;-80
2024/01/29 01:08:39;;;;;;;6.35;3.78;;;;;;;1.87;88.00;94183.44;4823058;29;20076;-79
2024/01/29 01:11:04;;;;;;;7.70;3.63;;;;;;;1.80;87.17;94177.44;4843199;29;20042;-80
2024/01/29 01:13:30;;;;;;;7.78;3.60;;;;;;;1.81;87.07;94173.06;4829309;29;20026;-78
2024/01/29 01:15:56;;;;;;;9.57;3.35;;;;;;;1.85;87.08;94180.25;4825928;29;20070;-79
2024/01/29 01:18:21;;;;;;;6.00;3.05;;;;;;;1.85;87.65;94175.09;4820301;29;20038;-80
2024/01/29 01:20:47;;;;;;;5.70;2.97;;;;;;;1.84;87.80;94180.44;4846893;29;20501;-79
2024/01/29 01:23:12;;;;;;;5.07;2.95;;;;;;;1.78;87.64;94169.09;4846858;29;20026;-79
2024/01/29 01:25:38;;;;;;;7.20;3.08;;;;;;;1.80;88.32;94180.03;4832590;29;20057;-80
2024/01/29 01:28:06;;;;;;;6.65;2.65;;;;;;;1.78;89.41;94170.84;4830519;29;20026;-80
2024/01/29 01:30:32;;;;;;;5.43;3.10;;;;;;;1.75;88.98;94177.19;4846772;29;20094;-79
2024/01/29 01:32:57;;;;;;;6.60;3.35;;;;;;;1.72;89.96;94169.84;4842370;29;20034;-79
2024/01/29 01:35:23;;;;;;;6.05;3.30;;;;;;;1.70;88.84;94166.66;4846875;29;20034;-79
2024/01/29 01:37:48;;;;;;;8.38;3.88;;;;;;;1.72;89.16;94175.00;4846813;29;20105;-80
2024/01/29 01:40:15;;;;;;;7.80;3.72;;;;;;;1.71;90.06;94172.59;4839734;29;20045;-79
2024/01/29 01:42:42;;;;;;;8.35;4.00;;;;;;;1.72;89.10;94166.47;4829858;29;20062;-79
2024/01/29 01:45:09;;;;;;;7.18;4.03;;;;;;;1.72;89.77;94167.25;4846516;29;20034;-79
2024/01/29 01:47:36;;;;;;;6.13;3.97;;;;;;;1.71;90.77;94162.28;4838416;29;20026;-79
2024/01/29 01:50:03;;;;;;;6.03;3.80;;;;;;;1.69;90.53;94165.06;4843658;29;20049;-80
2024/01/29 01:52:32;;;;;;;6.70;3.90;;;;;;;1.66;90.00;94165.44;4845604;29;20086;-79
2024/01/29 01:54:57;;;;;;;7.88;3.83;;;;;;;1.64;89.09;94163.06;4845630;29;20041;-78
2024/01/29 01:57:23;;;;;;;7.63;3.50;;;;;;;1.66;89.59;94166.22;4846038;29;20048;-80
2024/01/29 01:59:49;;;;;;;5.70;3.60;;;;;;;1.64;90.02;94167.41;4844912;29;20060;-79
2024/01/29 02:02:15;;;;;;;6.70;3.55;;;;;;;1.63;88.82;94160.66;4845713;29;20060;-79
2024/01/29 02:04:41;;;;;;;6.78;3.05;;;;;;;1.64;88.74;94162.25;4844808;29;20041;-78
2024/01/29 02:07:07;;;;;;;5.80;2.95;;;;;;;1.65;88.50;94159.47;4827896;29;20045;-80
2024/01/29 02:09:33;;;;;;;5.22;2.80;;;;;;;1.65;89.31;94156.91;4845383;29;20049;-79
2024/01/29 02:12:01;;;;;;;4.15;2.60;;;;;;;1.64;89.09;94155.31;4844884;29;20143;-79
2024/01/29 02:14:26;;;;;;;4.82;2.92;;;;;;;1.61;89.84;94153.09;4845060;29;20042;-80
2024/01/29 02:16:52;;;;;;;5.70;3.20;;;;;;;1.57;90.43;94149.28;4844988;29;20060;-78
2024/01/29 02:19:18;;;;;;;6.70;3.50;;;;;;;1.53;91.42;94147.28;4839397;29;20479;-80
2024/01/29 02:21:44;;;;;;;6.18;3.08;;;;;;;1.52;90.72;94149.06;4845899;29;20038;-79
2024/01/29 02:24:10;;;;;;;5.93;3.42;;;;;;;1.49;90.38;94141.72;4810679;29;20474;-79
2024/01/29 02:26:36;;;;;;;6.00;3.42;;;;;;;1.51;90.60;94151.84;4845224;29;20030;-79
2024/01/29 02:29:03;;;;;;;6.28;3.42;;;;;;;1.49;91.26;94148.63;4836588;29;20411;-79
2024/01/29 02:31:29;;;;;;;5.45;3.08;;;;;;;1.50;90.65;94150.25;4827112;29;20049;-78
2024/01/29 02:33:57;;;;;;;7.97;3.00;;;;;;;1.46;90.63;94136.91;4836881;29;20418;-78
2024/01/29 02:36:22;;;;;;;5.47;2.90;;;;;;;1.49;89.66;94143.47;4843374;29;20034;-79
2024/01/29 02:38:48;;;;;;;5.72;2.85;;;;;;;1.50;89.79;94147.66;4844909;29;20049;-80
2024/01/29 02:41:14;;;;;;;4.00;2.30;;;;;;;1.50;89.52;94145.09;4843462;29;20089;-80
2024/01/29 02:43:41;;;;;;;5.40;2.80;;;;;;;1.51;89.58;94144.09;4845019;29;20049;-79
2024/01/29 02:46:12;;;;;;;5.10;2.65;;;;;;;1.49;89.93;94141.72;4829914;29;20186;-79
2024/01/29 02:48:38;;;;;;;5.22;2.80;;;;;;;1.48;89.46;94141.91;4840621;29;20049;-79
2024/01/29 02:51:04;;;;;;;8.32;2.80;;;;;;;1.46;89.27;94136.91;4844798;29;20113;-79
2024/01/29 02:53:30;;;;;;;5.38;2.67;;;;;;;1.42;89.45;94131.34;4843864;29;20065;-78
2024/01/29 02:55:55;;;;;;;4.63;2.90;;;;;;;1.44;89.76;94134.53;4842531;29;20125;-79
2024/01/29 02:58:21;;;;;;;5.75;2.88;;;;;;;1.45;89.15;94132.75;4841702;29;20042;-79
2024/01/29 03:00:48;;;;;;;4.97;2.70;;;;;;;1.43;89.77;94135.50;4842628;29;20117;-79
2024/01/29 03:03:13;;;;;;;4.88;2.78;;;;;;;1.39;90.41;94130.91;4845511;29;20041;-79
2024/01/29 03:05:39;;;;;;;5.72;3.00;;;;;;;1.41;90.31;94141.84;4845702;29;20050;-79
2024/01/29 03:08:06;;;;;;;7.20;2.90;;;;;;;1.39;89.75;94128.34;4844722;29;20046;-78
2024/01/29 03:10:32;;;;;;;5.15;2.97;;;;;;;1.37;89.47;94125.94;4843503;29;20037;-79
2024/01/29 03:12:58;;;;;;;6.40;3.15;;;;;;;1.35;89.90;94121.97;4820342;29;20077;-80
2024/01/29 03:15:24;;;;;;;5.90;3.20;;;;;;;1.39;90.16;94129.13;4844976;29;20506;-79
2024/01/29 03:17:51;;;;;;;5.35;3.00;;;;;;;1.38;90.87;94131.91;4843693;29;20632;-79
2024/01/29 03:20:17;;;;;;;5.68;2.60;;;;;;;1.37;90.86;94133.69;4838983;29;20071;-79
2024/01/29 03:22:45;;;;;;;5.03;2.50;;;;;;;1.37;91.21;94130.31;4836632;29;20033;-79
2024/01/29 03:25:11;;;;;;;5.03;2.58;;;;;;;1.35;90.39;94132.28;4844924;29;20513;-79
2024/01/29 03:27:36;;;;;;;5.05;2.42;;;;;;;1.34;90.79;94128.91;4845153;29;20042;-79
2024/01/29 03:30:02;;;;;;;4.35;2.40;;;;;;;1.32;90.00;94123.13;4844458;29;20113;-80
2024/01/29 03:32:29;;;;;;;4.10;1.95;;;;;;;1.31;89.74;94126.72;4823518;29;20065;-79
2024/01/29 03:34:55;;;;;;;3.90;2.30;;;;;;;1.31;90.03;94125.94;4835972;29;20090;-79
2024/01/29 03:37:20;;;;;;;3.85;2.10;;;;;;;1.28;90.58;94129.66;4845045;29;20447;-78
2024/01/29 03:39:46;;;;;;;5.88;2.38;;;;;;;1.26;90.31;94123.88;4828510;29;20055;-79
2024/01/29 03:42:12;;;;;;;4.57;2.20;;;;;;;1.27;90.23;94124.69;4840930;29;20069;-80
2024/01/29 03:44:38;;;;;;;4.75;2.42;;;;;;;1.25;90.04;94132.63;4824193;29;20042;-78
2024/01/29 03:47:04;;;;;;;5.00;2.15;;;;;;;1.22;90.37;94130.44;4836078;29;20463;-79
2024/01/29 03:49:29;;;;;;;5.07;2.47;;;;;;;1.19;89.77;94131.59;4844117;29;20034;-79
2024/01/29 03:51:55;;;;;;;4.57;2.17;;;;;;;1.19;89.05;94130.78;4844027;29;20050;-78
2024/01/29 03:54:21;;;;;;;5.13;2.20;;;;;;;1.19;88.76;94131.59;4844225;29;20449;-79
2024/01/29 03:56:46;;;;;;;3.60;2.03;;;;;;;1.17;88.25;94125.00;4838064;29;20042;-79
2024/01/29 03:59:13;;;;;;;3.95;2.20;;;;;;;1.20;88.91;94127.25;4829902;29;20026;-79
2024/01/29 04:01:39;;;;;;;5.57;2.40;;;;;;;1.21;89.31;94133.97;4843151;29;20065;-80
2024/01/29 04:04:09;;;;;;;4.05;2.35;;;;;;;1.18;88.23;94126.63;4844300;29;20419;-79
2024/01/29 04:06:39;;;;;;;5.18;2.60;;;;;;;1.18;88.74;94126.63;4847806;29;20453;-80
2024/01/29 04:09:05;;;;;;;4.57;2.55;;;;;;;1.17;89.42;94117.28;4828060;29;20105;-79
2024/01/29 04:11:31;;;;;;;5.18;2.45;;;;;;;1.18;88.49;94111.94;4830299;29;20042;-79
2024/01/29 04:13:56;;;;;;;7.22;2.70;;;;;;;1.18;89.12;94111.94;4824268;29;20036;-78
2024/01/29 04:16:22;;;;;;;5.38;2.60;;;;;;;1.22;89.11;94114.94;4840364;29;20537;-79
2024/01/29 04:18:47;;;;;;;5.95;3.03;;;;;;;1.17;89.62;94115.50;4844046;29;20452;-79
2024/01/29 04:21:14;;;;;;;5.10;2.88;;;;;;;1.21;90.09;94115.91;4837599;29;20041;-80
2024/01/29 04:23:39;;;;;;;6.25;3.03;;;;;;;1.20;90.69;94124.66;4828390;29;20022;-79
2024/01/29 04:26:05;;;;;;;5.85;3.08;;;;;;;1.17;91.44;94119.84;4837320;29;20118;-79
2024/01/29 04:28:30;;;;;;;6.57;3.60;;;;;;;1.16;92.04;94118.28;4838614;29;20376;-79
2024/01/29 04:30:56;;;;;;;5.93;3.10;;;;;;;1.15;92.57;94119.25;4833914;29;20050;-78
2024/01/29 04:33:22;;;;;;;8.00;3.28;;;;;;;1.14;92.28;94118.44;4842701;29;20040;-79
2024/01/29 04:35:47;;;;;;;6.25;3.47;;;;;;;1.16;92.62;94118.28;4827214;29;20126;-78
2024/01/29 04:38:13;;;;;;;7.20;3.85;;;;;;;1.17;92.85;94117.28;4836136;29;20033;-79
2024/01/29 04:40:42;;;;;;;12.68;4.00;;;;;;;1.15;94.19;94117.47;4842175;29;20041;-79
2024/01/29 04:43:08;;;;;;;8.40;4.35;;;;;;;1.13;94.86;94111.72;4837094;29;20065;-79
2024/01/29 04:45:33;;;;;;;9.65;4.25;;;;;;;1.13;93.64;94103.19;4842826;29;20054;-79
2024/01/29 04:48:00;;;;;;;6.93;4.10;;;;;;;1.13;93.61;94109.13;4841470;29;20048;-80
2024/01/29 04:50:26;;;;;;;7.18;4.05;;;;;;;1.14;93.14;94105.56;4833046;29;20051;-79
2024/01/29 04:52:52;;;;;;;7.05;4.20;;;;;;;1.15;93.18;94102.00;4826883;29;20033;-79
2024/01/29 04:55:18;;;;;;;8.23;4.05;;;;;;;1.16;94.10;94102.78;4841944;29;20050;-79
2024/01/29 04:57:43;;;;;;;7.75;4.28;;;;;;;1.16;93.67;94095.84;4833924;29;20077;-78
2024/01/29 05:00:10;;;;;;;6.53;4.03;;;;;;;1.17;93.68;94101.78;4835734;29;20042;-79
2024/01/29 05:02:39;;;;;;;11.18;4.32;;;;;;;1.18;93.80;94104.19;4826047;29;20034;-79
2024/01/29 05:05:05;;;;;;;6.43;3.40;;;;;;;1.16;93.59;94093.28;4839272;29;20049;-79
2024/01/29 05:07:30;;;;;;;8.40;4.25;;;;;;;1.21;93.08;94100.44;4842477;29;20078;-79
2024/01/29 05:09:56;;;;;;;9.57;3.88;;;;;;;1.23;93.15;94103.63;4836093;29;20114;-79
2024/01/29 05:12:21;;;;;;;7.10;3.53;;;;;;;1.23;93.35;94101.06;4843532;29;20483;-79
2024/01/29 05:14:48;;;;;;;7.20;3.90;;;;;;;1.21;93.89;94096.06;4843491;29;20128;-79
2024/01/29 05:17:14;;;;;;;7.82;4.00;;;;;;;1.20;93.33;94096.28;4841871;29;20068;-78
2024/01/29 05:19:43;;;;;;;8.07;3.50;;;;;;;1.20;93.83;94093.69;4826205;29;20034;-80
2024/01/29 05:22:09;;;;;;;6.72;3.97;;;;;;;1.18;93.39;94093.88;4841573;29;20045;-79
2024/01/29 05:24:35;;;;;;;6.45;4.15;;;;;;;1.18;93.14;94091.31;4842926;29;20041;-79
2024/01/29 05:27:01;;;;;;;6.93;3.78;;;;;;;1.18;93.90;94090.50;4842446;29;20113;-79
2024/01/29 05:29:26;;;;;;;6.18;3.58;;;;;;;1.18;93.18;94088.72;4842195;29;20140;-79
2024/01/29 05:31:52;;;;;;;6.25;3.47;;;;;;;1.18;93.67;94093.88;4842059;29;20034;-79
2024/01/29 05:34:17;;;;;;;7.22;3.72;;;;;;;1.19;93.21;94092.09;4832317;29;20050;-79
2024/01/29 05:36:43;;;;;;;6.90;3.83;;;;;;;1.19;93.55;94092.09;4841079;29;20551;-79
2024/01/29 05:39:09;;;;;;;7.63;3.60;;;;;;;1.21;93.79;94095.28;4839651;29;20550;-78
2024/01/29 05:41:34;;;;;;;7.40;3.97;;;;;;;1.19;93.69;94098.06;4840210;29;20130;-77
2024/01/29 05:44:00;;;;;;;6.90;3.97;;;;;;;1.19;93.90;94103.22;4809293;29;20087;-79
2024/01/29 05:46:26;;;;;;;7.22;3.92;;;;;;;1.17;94.91;94099.22;4821304;29;20085;-79
2024/01/29 05:48:52;;;;;;;10.10;3.75;;;;;;;1.12;93.64;94091.25;4839148;29;20050;-79
2024/01/29 05:51:20;;;;;;;6.75;3.67;;;;;;;1.14;93.55;94105.56;4820828;29;20097;-79
2024/01/29 05:53:45;;;;;;;7.03;3.72;;;;;;;1.13;93.33;94103.97;4838075;29;20555;-79
2024/01/29 05:56:11;;;;;;;7.15;3.75;;;;;;;1.13;93.48;94103.19;4836321;29;20124;-81
2024/01/29 05:58:37;;;;;;;6.75;3.53;;;;;;;1.12;94.06;94109.31;4838501;29;20434;-79
2024/01/29 06:01:03;;;;;;;6.85;3.60;;;;;;;1.09;94.30;94107.13;4844369;29;20037;-80
2024/01/29 06:03:28;;;;;;;6.07;3.40;;;;;;;1.11;94.38;94110.31;4833058;29;20052;-80
2024/01/29 06:05:55;;;;;;;8.02;3.17;;;;;;;1.10;95.13;94109.50;4824208;29;20034;-78
2024/01/29 06:08:20;;;;;;;8.15;3.83;;;;;;;1.09;95.16;94113.06;4830053;29;20049;-78
2024/01/29 06:10:46;;;;;;;6.43;3.53;;;;;;;1.05;94.91;94117.00;4820137;29;20049;-77
2024/01/29 06:13:12;;;;;;;6.95;3.55;;;;;;;1.02;96.41;94118.19;4826076;29;20052;-80
2024/01/29 06:15:37;;;;;;;6.45;3.75;;;;;;;1.02;95.57;94113.00;4820321;29;20048;-78
2024/01/29 06:18:04;;;;;;;8.13;3.70;;;;;;;0.97;96.34;94110.22;4822063;29;20038;-80
2024/01/29 06:20:30;;;;;;;7.60;3.70;;;;;;;1.00;95.59;94120.13;4825369;29;20042;-81
2024/01/29 06:22:56;;;;;;;5.72;3.25;;;;;;;0.99;95.16;94121.13;4841489;29;20050;-78
2024/01/29 06:25:21;;;;;;;5.60;3.40;;;;;;;0.97;96.79;94120.53;4842246;29;20033;-78
2024/01/29 06:27:47;;;;;;;7.30;3.45;;;;;;;0.94;96.97;94114.94;4842363;29;20025;-79
2024/01/29 06:30:14;;;;;;;7.95;3.70;;;;;;;0.94;96.46;94120.88;4836746;29;20067;-78
2024/01/29 06:32:40;;;;;;;7.43;3.30;;;;;;;0.94;95.99;94123.47;4834848;29;20056;-78
2024/01/29 06:35:06;;;;;;;9.32;4.38;;;;;;;0.96;96.51;94123.28;4808986;29;20498;-79
2024/01/29 06:37:33;;;;;;;7.90;3.83;;;;;;;0.96;96.69;94113.75;4828847;29;20030;-79
2024/01/29 06:39:58;;;;;;;6.63;3.78;;;;;;;0.98;97.82;94122.09;4825970;29;20137;-79
2024/01/29 06:42:24;;;;;;;7.15;4.18;;;;;;;0.92;98.26;94109.94;4842511;29;20127;-78
2024/01/29 06:44:50;;;;;;;6.97;4.20;;;;;;;0.97;97.87;94124.91;4826438;29;20407;-79
2024/01/29 06:47:17;;;;;;;7.22;4.13;;;;;;;0.95;98.31;94122.50;4841190;29;20057;-78
2024/01/29 06:49:43;;;;;;;8.30;4.32;;;;;;;0.94;97.88;94120.09;4836313;29;20510;-79
2024/01/29 06:52:08;;;;;;;9.23;4.28;;;;;;;0.95;98.30;94127.66;4830206;29;20056;-78
2024/01/29 06:54:34;;;;;;;6.10;3.78;;;;;;;0.97;96.97;94120.53;4825161;29;20050;-79
2024/01/29 06:57:00;;;;;;;6.18;3.50;;;;;;;1.00;97.12;94121.94;4825999;29;20045;-79
2024/01/29 06:59:25;;;;;;;12.60;4.45;;;;;;;1.02;98.79;94123.34;4840367;29;20398;-78
2024/01/29 07:01:52;;;;;;;6.80;3.80;;;;;;;0.94;98.94;94109.78;4842940;29;20086;-79
2024/01/29 07:04:18;;;;;;;7.57;3.58;;;;;;;1.06;98.02;94126.34;4841884;29;20093;-79
2024/01/29 07:06:44;;;;;;;6.00;3.33;;;;;;;1.11;97.78;94136.09;4843545;29;20046;-78
2024/01/29 07:09:09;;;;;;;6.72;3.45;;;;;;;1.47;97.19;94119.66;4842439;29;20042;-79
2024/01/29 07:11:35;;;;;;;7.38;3.90;;;;;;;2.36;94.37;94122.19;4814884;29;20068;-79
2024/01/29 07:14:01;;;;;;;8.63;4.10;;;;;;;3.27;89.31;94128.66;4810908;29;20041;-78
2024/01/29 07:16:26;;;;;;;5.93;3.47;;;;;;;4.18;81.62;94125.22;4808549;29;20095;-78
2024/01/29 07:18:52;;;;;;;8.43;4.15;;;;;;;5.12;73.60;94123.66;4840308;29;20034;-78
2024/01/29 07:21:18;;;;;;;8.98;4.20;;;;;;;6.02;72.26;94123.22;4833770;29;20086;-78
2024/01/29 07:23:43;;;;;;;6.63;4.05;;;;;;;6.88;67.52;94130.94;4834147;29;20125;-78
2024/01/29 07:26:09;;;;;;;6.95;3.80;;;;;;;7.62;62.27;94127.97;4840429;29;20121;-78
2024/01/29 07:28:35;;;;;;;8.05;4.20;;;;;;;8.33;60.55;94126.00;4834077;29;20027;-79
2024/01/29 07:31:00;;;;;;;7.07;4.07;;;;;;;8.71;54.11;94128.09;4840258;29;20046;-79
2024/01/29 07:33:26;;;;;;;6.68;3.83;;;;;;;8.68;52.37;94122.53;4840806;29;20038;-79
2024/01/29 07:35:52;;;;;;;7.32;4.05;;;;;;;9.26;51.33;94124.03;4840458;29;20090;-79
2024/01/29 07:38:17;;;;;;;6.80;3.72;;;;;;;9.97;48.97;94136.53;4836262;29;20384;-78
2024/01/29 07:40:43;;;;;;;7.38;4.15;;;;;;;10.67;46.76;94136.88;4841541;29;20095;-79
2024/01/29 07:43:09;;;;;;;7.57;4.10;;;;;;;11.28;43.44;94147.97;4843194;29;20034;-79
2024/01/29 07:45:36;;;;;;;6.10;3.40;;;;;;;11.81;41.59;94141.00;4837518;29;20098;-79
2024/01/29 07:48:04;;;;;;;7.43;3.60;;;;;;;12.25;40.03;94140.75;4834858;29;20072;-80
2024/01/29 07:50:31;;;;;;;5.75;3.40;;;;;;;12.56;38.95;94146.09;4825684;29;20076;-80
2024/01/29 07:52:56;;;;;;;5.65;3.47;;;;;;;12.31;38.22;94138.13;4841166;29;20512;-79
2024/01/29 07:55:23;;;;;;;5.95;3.50;;;;;;;12.78;37.77;94139.88;4839851;29;20030;-79
2024/01/29 07:57:49;;;;;;;6.38;3.60;;;;;;;13.51;35.95;94150.28;4835990;29;20049;-80
2024/01/29 08:00:14;;;;;;;6.20;3.40;;;;;;;13.62;35.28;94140.50;4843025;29;20038;-80
2024/01/29 08:02:40;;;;;;;7.38;3.22;;;;;;;13.84;34.55;94148.13;4820357;29;20031;-79
2024/01/29 08:05:06;;;;;;;6.13;3.17;;;;;;;14.88;33.76;94142.28;4841953;29;20046;-80
2024/01/29 08:07:31;;;;;;;4.22;2.33;;;;;;;15.50;31.53;94140.81;4840820;29;20534;-80
2024/01/29 08:10:00;;;;;;;4.68;2.80;;;;;;;15.81;31.79;94151.16;4825320;29;20518;-79
2024/01/29 08:12:27;;;;;;;5.00;2.72;;;;;;;16.09;29.82;94154.84;4820489;29;20757;-81
2024/01/29 08:14:53;;;;;;;4.07;2.40;;;;;;;15.79;30.70;94153.28;4823621;29;20038;-80
2024/01/29 08:17:19;;;;;;;4.68;2.78;;;;;;;14.89;30.84;94147.28;4841182;29;20396;-79
2024/01/29 08:19:45;;;;;;;4.15;2.40;;;;;;;14.74;31.98;94145.50;4840917;29;20034;-79
2024/01/29 08:22:10;;;;;;;4.53;2.70;;;;;;;15.35;30.63;94148.84;4824382;29;20046;-79
2024/01/29 08:24:37;;;;;;;4.72;2.00;;;;;;;15.41;30.67;94142.47;4841170;29;20132;-79
2024/01/29 08:27:03;;;;;;;4.20;2.40;;;;;;;15.82;30.41;94140.31;4839194;29;20030;-80
2024/01/29 08:29:28;;;;;;;4.80;2.40;;;;;;;15.95;30.78;94135.47;4840613;29;20247;-79
2024/01/29 08:31:54;;;;;;;4.25;2.47;;;;;;;17.03;29.02;94137.66;4824387;29;20041;-80
2024/01/29 08:34:19;;;;;;;4.30;2.63;;;;;;;16.42;30.08;94139.97;4835943;29;20110;-79
2024/01/29 08:36:45;;;;;;;4.50;2.47;;;;;;;16.95;29.51;94130.38;4821381;29;20042;-79
2024/01/29 08:39:11;;;;;;;4.95;2.60;;;;;;;15.96;28.91;94135.19;4832896;29;20042;-79
2024/01/29 08:41:36;;;;;;;4.22;2.60;;;;;;;15.96;30.81;94139.66;4842186;29;20042;-79
2024/01/29 08:44:04;;;;;;;5.53;2.50;;;;;;;16.37;30.50;94131.31;4832943;29;20049;-79
2024/01/29 08:46:30;;;;;;;4.78;2.75;;;;;;;15.71;31.63;94145.97;4837817;29;20090;-79
2024/01/29 08:48:56;;;;;;;4.43;2.38;;;;;;;15.97;30.08;94144.69;4833858;29;20046;-79
2024/01/29 08:51:22;;;;;;;4.53;2.65;;;;;;;16.16;29.70;94138.69;4836477;29;20050;-79
2024/01/29 08:53:47;;;;;;;6.88;2.92;;;;;;;15.32;30.50;94149.41;4831821;29;20102;-79
2024/01/29 08:56:13;;;;;;;4.78;2.83;;;;;;;14.95;30.81;94142.75;4840322;29;20045;-78
2024/01/29 08:58:38;;;;;;;4.65;2.70;;;;;;;14.46;31.23;94143.50;4823918;29;20081;-79
2024/01/29 09:01:04;;;;;;;5.28;3.10;;;;;;;13.83;32.43;94149.19;4829934;29;20044;-78
2024/01/29 09:03:30;;;;;;;4.70;2.90;;;;;;;13.37;34.08;94128.16;4835036;29;20042;-78
2024/01/29 09:05:55;;;;;;;6.78;3.40;;;;;;;13.43;31.96;94137.63;4838560;29;20045;-79
2024/01/29 09:08:22;;;;;;;6.18;3.15;;;;;;;13.17;33.03;94139.41;4840146;29;20045;-78
2024/01/29 09:10:48;;;;;;;5.95;2.80;;;;;;;12.45;34.16;94144.50;4831213;29;20030;-79
2024/01/29 09:13:13;;;;;;;5.80;2.88;;;;;;;12.18;35.33;94145.44;4840395;29;20050;-79
2024/01/29 09:15:39;;;;;;;5.85;3.25;;;;;;;12.10;35.05;94156.41;4833503;29;20103;-79
2024/01/29 09:18:05;;;;;;;4.78;2.80;;;;;;;12.03;35.98;94150.63;4832525;29;20049;-79
2024/01/29 09:20:30;;;;;;;5.30;3.03;;;;;;;11.83;36.84;94152.03;4839870;29;20179;-79
2024/01/29 09:22:56;;;;;;;5.95;3.10;;;;;;;11.39;35.95;94152.25;4831786;29;20613;-78
2024/01/29 09:25:21;;;;;;;5.47;2.97;;;;;;;11.50;36.37;94149.69;4839323;29;20490;-79
2024/01/29 09:27:47;;;;;;;5.60;3.22;;;;;;;11.49;36.14;94145.50;4838584;29;20030;-79
2024/01/29 09:30:13;;;;;;;4.93;2.90;;;;;;;11.66;35.84;94159.25;4839332;29;20503;-78
2024/01/29 09:32:38;;;;;;;5.57;3.40;;;;;;;11.28;35.69;94161.06;4834851;29;20042;-78
2024/01/29 09:35:04;;;;;;;5.15;3.15;;;;;;;11.40;37.04;94155.66;4821313;29;20147;-79
2024/01/29 09:37:30;;;;;;;6.05;3.38;;;;;;;11.55;37.31;94157.59;4833927;29;20037;-79
2024/01/29 09:39:56;;;;;;;5.80;3.03;;;;;;;11.68;34.59;94162.41;4838982;29;20049;-79
2024/01/29 09:42:24;;;;;;;6.47;2.95;;;;;;;11.37;34.81;94162.19;4841809;29;20102;-79
2024/01/29 09:44:53;;;;;;;5.43;3.25;;;;;;;10.82;36.52;94166.63;4835581;29;20058;-79
2024/01/29 09:47:21;;;;;;;6.85;3.28;;;;;;;10.72;39.15;94160.53;4841405;29;20058;-79
2024/01/29 09:49:47;;;;;;;10.10;3.40;;;;;;;10.78;39.78;94162.13;4833825;29;20446;-79
2024/01/29 09:52:13;;;;;;;8.30;3.72;;;;;;;10.52;36.82;94177.59;4833220;29;20038;-78
2024/01/29 09:54:45;;;;;;;5.05;2.67;;;;;;;10.33;39.48;94174.44;4841990;29;20414;-79
2024/01/29 09:57:15;;;;;;;5.78;3.22;;;;;;;10.31;40.31;94175.72;4832319;29;20038;-78
2024/01/29 09:59:41;;;;;;;6.13;3.17;;;;;;;10.56;38.19;94180.47;4826496;29;20491;-79
2024/01/29 10:02:08;;;;;;;5.38;3.25;;;;;;;10.63;39.01;94176.66;4835003;29;20065;-79
2024/01/29 10:04:34;;;;;;;5.63;3.28;;;;;;;10.29;40.49;94172.56;4843215;29;20404;-79
2024/01/29 10:07:00;;;;;;;5.93;2.92;;;;;;;9.91;43.35;94176.75;4836087;29;20502;-78
2024/01/29 10:09:26;;;;;;;5.80;3.40;;;;;;;10.16;40.98;94173.69;4836574;29;20046;-78
2024/01/29 10:11:51;;;;;;;6.03;3.22;;;;;;;10.01;43.44;94176.88;4839454;29;20034;-79
2024/01/29 10:14:17;;;;;;;4.45;2.75;;;;;;;10.03;42.25;94169.59;4843412;29;20629;-79
2024/01/29 10:16:43;;;;;;;3.50;2.20;;;;;;;9.58;43.56;94158.22;4826507;29;20054;-78
2024/01/29 10:19:09;;;;;;;4.95;2.88;;;;;;;9.74;43.76;94172.31;4833182;29;20042;-78
2024/01/29 10:21:43;;;;;;;4.70;2.78;;;;;;;9.34;44.68;94172.47;4821905;29;20053;-79
2024/01/29 10:24:13;;;;;;;5.55;2.90;;;;;;;9.29;45.05;94167.97;4829047;29;20037;-79
2024/01/29 10:26:40;;;;;;;5.57;2.75;;;;;;;9.64;43.92;94159.13;4842655;29;20038;-78
2024/01/29 10:29:07;;;;;;;5.10;3.00;;;;;;;9.53;44.04;94162.59;4839856;29;20042;-78
2024/01/29 10:31:33;;;;;;;6.82;3.10;;;;;;;9.74;45.55;94167.09;4838845;29;20041;-78
2024/01/29 10:34:00;;;;;;;4.57;2.70;;;;;;;9.95;45.44;94162.97;4834641;29;20045;-78
2024/01/29 10:36:26;;;;;;;4.90;2.80;;;;;;;9.61;44.25;94167.41;4837980;29;20041;-78
2024/01/29 10:38:54;;;;;;;5.88;3.05;;;;;;;9.50;45.71;94160.44;4831789;29;20136;-78
2024/01/29 10:41:22;;;;;;;8.73;3.00;;;;;;;9.22;46.64;94175.19;4834051;29;20038;-79
2024/01/29 10:43:51;;;;;;;5.70;2.83;;;;;;;9.15;48.09;94158.88;4839911;29;20061;-78
2024/01/29 10:46:22;;;;;;;4.75;3.05;;;;;;;9.15;47.89;94164.09;4838906;29;20039;-79
2024/01/29 10:48:49;;;;;;;5.38;3.10;;;;;;;9.22;46.53;94159.50;4830952;29;20042;-79
2024/01/29 10:51:16;;;;;;;5.15;2.80;;;;;;;9.50;45.11;94150.00;4840201;29;20026;-79
2024/01/29 10:53:44;;;;;;;4.53;2.60;;;;;;;9.56;45.44;94154.28;4840785;29;20061;-79
2024/01/29 10:56:10;;;;;;;4.88;2.85;;;;;;;9.45;46.70;94155.16;4841575;29;20447;-78
2024/01/29 10:58:37;;;;;;;4.55;2.65;;;;;;;9.30;47.06;94151.28;4836187;29;20030;-79
2024/01/29 11:01:05;;;;;;;6.30;3.17;;;;;;;9.07;48.31;94151.41;4833465;29;20120;-78
2024/01/29 11:03:31;;;;;;;4.85;2.92;;;;;;;9.01;49.41;94154.97;4841753;29;20095;-79
2024/01/29 11:06:19;;;;;;;5.63;3.20;;;;;;;9.05;48.61;94135.97;4823382;29;20133;-79
2024/01/29 11:08:51;;;;;;;6.35;3.67;;;;;;;9.35;49.80;94137.50;4842413;29;20133;-78
2024/01/29 11:11:18;;;;;;;6.53;2.97;;;;;;;9.76;47.37;94133.66;4829764;29;20072;-78
2024/01/29 11:13:44;;;;;;;5.03;3.25;;;;;;;9.90;46.78;94134.09;4831400;29;20195;-78
2024/01/29 11:16:10;;;;;;;5.97;3.25;;;;;;;9.76;46.64;94138.09;4840515;29;20138;-78
2024/01/29 11:18:36;;;;;;;3.45;2.13;;;;;;;9.99;46.32;94129.25;4840771;29;20503;-78
2024/01/29 11:21:02;;;;;;;7.32;3.30;;;;;;;9.98;47.31;94131.06;4833766;29;21172;-78
2024/01/29 11:23:28;;;;;;;5.80;3.00;;;;;;;9.96;44.66;94122.69;4833660;29;20082;-78
2024/01/29 11:26:03;;;;;;;5.35;3.20;;;;;;;10.06;45.50;94131.69;4833480;29;20063;-79
2024/01/29 11:28:29;;;;;;;4.82;2.70;;;;;;;10.34;43.93;94128.94;4840315;29;20042;-79
2024/01/29 11:30:55;;;;;;;5.93;3.53;;;;;;;10.07;46.23;94122.81;4817168;29;20048;-78
2024/01/29 11:33:21;;;;;;;4.88;3.10;;;;;;;10.56;44.26;94121.06;4809879;29;20041;-78